createdAt,value
2023-03-23T15:59:04.370Z,61.34
2023-03-23T16:01:12.651Z,61.08
2023-03-23T16:03:20.939Z,61.63
2023-03-23T16:05:25.332Z,61.51
2023-03-23T16:07:28.316Z,61.55
2023-03-23T16:09:31.075Z,62.00
2023-03-23T16:11:34.477Z,62.36
2023-03-23T16:13:37.251Z,62.86
2023-03-23T16:15:40.056Z,62.85
2023-03-23T16:17:43.388Z,63.66
2023-03-23T16:19:46.436Z,62.98
2023-03-23T16:21:50.717Z,63.53
2023-03-23T16:23:53.706Z,63.43
2023-03-23T16:25:56.577Z,64.16
2023-03-23T16:27:59.395Z,64.64
2023-03-23T16:30:04.469Z,64.24
2023-03-23T16:32:08.022Z,64.10
2023-03-23T16:34:10.899Z,63.84
2023-03-23T16:36:14.338Z,63.70
2023-03-23T16:38:19.156Z,63.55
2023-03-23T16:40:23.473Z,64.07
2023-03-23T16:42:26.337Z,64.36
2023-03-23T16:44:29.310Z,64.93
2023-03-23T16:46:32.401Z,64.16
2023-03-23T16:48:35.437Z,64.08
2023-03-23T16:50:39.343Z,64.11
2023-03-23T16:52:46.616Z,64.44
2023-03-23T16:54:50.896Z,64.39
2023-03-23T16:56:53.814Z,63.98
2023-03-23T16:58:56.756Z,63.86
2023-03-23T17:00:59.562Z,64.19
2023-03-23T17:03:02.478Z,64.31
2023-03-23T17:05:05.868Z,64.37
2023-03-23T17:07:08.737Z,65.05
2023-03-23T17:09:11.583Z,64.38
2023-03-23T17:11:15.908Z,64.45
2023-03-23T17:13:18.742Z,64.17
2023-03-23T17:15:21.630Z,64.32
2023-03-23T17:17:25.160Z,64.24
2023-03-23T17:19:31.863Z,64.70
2023-03-23T17:21:35.312Z,64.29
2023-03-23T17:23:38.213Z,64.87
2023-03-23T17:25:41.196Z,64.47
2023-03-23T17:27:45.419Z,64.24
2023-03-23T17:29:48.467Z,64.69
2023-03-23T17:31:51.810Z,64.62
2023-03-23T17:33:54.760Z,65.15
2023-03-23T17:35:57.593Z,65.07
2023-03-23T17:38:00.699Z,64.66
2023-03-23T17:40:04.664Z,64.88
2023-03-23T17:42:07.763Z,65.17
2023-03-23T17:44:12.015Z,64.98
2023-03-23T17:46:15.339Z,64.81
2023-03-23T17:48:18.251Z,64.99
2023-03-23T17:50:21.141Z,64.82
2023-03-23T17:52:26.898Z,64.68
2023-03-23T17:54:30.965Z,64.39
2023-03-23T17:56:34.212Z,63.83
2023-03-23T17:58:37.305Z,64.13
2023-03-23T18:00:41.654Z,64.92
2023-03-23T18:02:45.104Z,64.67
2023-03-23T18:04:48.128Z,64.90
2023-03-23T18:06:50.953Z,64.83
2023-03-23T18:08:53.813Z,65.14
2023-03-23T18:10:58.190Z,64.65
2023-03-23T18:13:01.062Z,64.27
2023-03-23T18:15:04.049Z,63.99
2023-03-23T18:17:08.398Z,64.28
2023-03-23T18:19:11.282Z,64.80
2023-03-23T18:21:14.100Z,65.13
2023-03-23T18:23:16.945Z,65.12
2023-03-23T18:25:19.875Z,65.09
2023-03-23T18:27:22.742Z,65.23
2023-03-23T18:29:25.613Z,64.67
2023-03-23T18:31:31.436Z,64.17
2023-03-23T18:33:42.413Z,64.67
2023-03-23T18:35:45.928Z,64.64
2023-03-23T18:37:49.126Z,64.54
2023-03-23T18:39:53.593Z,64.86
2023-03-23T18:41:56.442Z,65.33
2023-03-23T18:43:59.297Z,64.77
2023-03-23T18:46:02.197Z,65.02
2023-03-23T18:48:05.578Z,65.33
2023-03-23T18:50:11.248Z,65.28
2023-03-23T18:52:14.305Z,64.61
2023-03-23T18:54:17.475Z,65.11
2023-03-23T18:56:20.359Z,64.33
2023-03-23T18:58:23.198Z,64.98
2023-03-23T19:00:26.215Z,64.59
2023-03-23T19:02:29.230Z,63.95
2023-03-23T19:04:32.977Z,63.99
2023-03-23T19:06:37.205Z,64.26
2023-03-23T19:08:40.057Z,63.97
2023-03-23T19:10:43.829Z,64.40
2023-03-23T19:12:47.375Z,64.09
2023-03-23T19:14:51.656Z,64.67
2023-03-23T19:16:54.606Z,64.26
2023-03-23T19:18:57.489Z,65.03
2023-03-23T19:23:07.877Z,65.45
2023-03-23T19:25:11.333Z,65.42
2023-03-23T19:27:14.258Z,65.35
2023-03-23T19:29:26.637Z,64.79
2023-03-23T19:31:30.617Z,64.92
2023-03-23T19:33:33.507Z,65.45
2023-03-23T19:35:37.393Z,65.30
2023-03-23T19:37:40.373Z,65.05
2023-03-23T19:39:44.527Z,65.50
2023-03-23T19:41:47.397Z,65.98
2023-03-23T19:43:50.288Z,66.38
2023-03-23T19:45:53.481Z,65.91
2023-03-23T19:47:56.548Z,65.33
2023-03-23T19:49:59.918Z,66.32
2023-03-23T19:52:08.923Z,65.67
2023-03-23T19:54:13.745Z,65.62
2023-03-23T19:56:21.460Z,64.78
2023-03-23T19:58:24.973Z,65.35
2023-03-23T20:00:28.581Z,64.62
2023-03-23T20:02:32.243Z,65.38
2023-03-23T20:04:36.631Z,64.05
2023-03-23T20:06:40.054Z,64.48
2023-03-23T20:08:44.996Z,64.55
2023-03-23T20:10:48.234Z,64.62
2023-03-23T20:12:52.476Z,64.53
2023-03-23T20:14:55.762Z,63.99
2023-03-23T20:16:58.611Z,64.25
2023-03-23T20:19:02.303Z,64.01
2023-03-23T20:21:10.115Z,64.36
2023-03-23T20:23:12.943Z,63.68
2023-03-23T20:25:16.140Z,64.09
2023-03-23T20:27:19.206Z,64.20
2023-03-23T20:29:23.865Z,64.53
2023-03-23T20:31:28.420Z,64.60
2023-03-23T20:33:31.989Z,63.84
2023-03-23T20:35:34.942Z,64.16
2023-03-23T20:37:39.268Z,64.96
2023-03-23T20:39:42.265Z,63.93
2023-03-23T20:41:47.458Z,63.86
2023-03-23T20:43:50.446Z,64.43
2023-03-23T20:45:54.777Z,64.08
2023-03-23T20:47:57.630Z,63.85
2023-03-23T20:50:00.846Z,62.99
2023-03-23T20:52:05.981Z,63.29
2023-03-23T20:54:10.001Z,63.77
2023-03-23T20:56:12.836Z,63.79
2023-03-23T20:58:16.580Z,63.89
2023-03-23T21:00:19.748Z,63.39
2023-03-23T21:02:25.921Z,63.12
2023-03-23T21:04:30.118Z,63.96
2023-03-23T21:06:33.926Z,63.05
2023-03-23T21:08:38.152Z,63.11
2023-03-23T21:10:41.119Z,63.30
2023-03-23T21:12:43.996Z,62.99
2023-03-23T21:14:46.812Z,63.49
2023-03-23T21:16:49.687Z,63.05
2023-03-23T21:18:54.157Z,63.05
2023-03-23T21:20:57.702Z,63.19
2023-03-23T21:23:01.984Z,62.70
2023-03-23T21:25:05.264Z,63.23
2023-03-23T21:27:08.120Z,62.89
2023-03-23T21:29:11.874Z,62.67
2023-03-23T21:31:17.050Z,62.92
2023-03-23T21:33:19.958Z,63.02
2023-03-23T21:35:24.302Z,62.07
2023-03-23T21:37:28.879Z,62.07
2023-03-23T21:39:31.751Z,62.31
2023-03-23T21:41:42.558Z,62.47
2023-03-23T21:43:46.605Z,62.67
2023-03-23T21:45:49.435Z,62.47
2023-03-23T21:47:56.796Z,62.88
2023-03-23T21:50:00.187Z,62.22
2023-03-23T21:52:06.146Z,62.01
2023-03-23T21:54:08.994Z,62.87
2023-03-23T21:56:12.503Z,62.24
2023-03-23T21:58:15.372Z,62.63
2023-03-23T22:00:18.868Z,63.35
2023-03-23T22:02:21.935Z,62.94
2023-03-23T22:04:25.484Z,62.19
2023-03-23T22:06:28.525Z,62.30
2023-03-23T22:08:32.938Z,62.33
2023-03-23T22:10:36.184Z,61.75
2023-03-23T22:12:39.269Z,61.80
2023-03-23T22:14:42.283Z,62.69
2023-03-23T22:16:45.276Z,62.59
2023-03-23T22:18:50.050Z,62.90
2023-03-23T22:20:53.222Z,62.86
2023-03-23T22:22:56.479Z,63.12
2023-03-23T22:25:01.200Z,63.73
2023-03-23T22:27:04.390Z,63.71
2023-03-23T22:29:10.340Z,63.59
2023-03-23T22:31:17.357Z,64.08
2023-03-23T22:33:20.272Z,63.52
2023-03-23T22:35:23.252Z,64.14
2023-03-23T22:37:26.180Z,64.13
2023-03-23T22:39:29.523Z,64.44
2023-03-23T22:41:37.012Z,64.51
2023-03-23T22:43:39.901Z,63.88
2023-03-23T22:45:42.957Z,64.64
2023-03-23T22:47:46.184Z,64.26
2023-03-23T22:49:49.156Z,65.17
2023-03-23T22:51:52.076Z,65.23
2023-03-23T22:53:55.966Z,64.54
2023-03-23T22:56:01.046Z,64.58
2023-03-23T22:58:05.275Z,64.66
2023-03-23T23:00:14.435Z,65.30
2023-03-23T23:02:17.678Z,64.65
2023-03-23T23:04:20.622Z,65.06
2023-03-23T23:06:24.785Z,65.29
2023-03-23T23:08:30.001Z,64.44
2023-03-23T23:10:35.464Z,64.75
2023-03-23T23:12:38.368Z,65.26
2023-03-23T23:14:44.687Z,65.08
2023-03-23T23:16:48.261Z,65.11
2023-03-23T23:18:52.486Z,66.04
2023-03-23T23:20:57.370Z,65.14
2023-03-23T23:23:00.887Z,65.96
2023-03-23T23:25:04.379Z,65.28
2023-03-23T23:27:07.339Z,65.37
2023-03-23T23:29:10.264Z,66.08
2023-03-23T23:31:25.969Z,65.68
2023-03-23T23:33:29.048Z,65.55
2023-03-23T23:35:32.055Z,65.84
2023-03-23T23:37:35.101Z,65.55
2023-03-23T23:39:40.663Z,65.92
2023-03-23T23:41:44.183Z,66.16
2023-03-23T23:43:49.142Z,66.44
2023-03-23T23:45:52.141Z,66.76
2023-03-23T23:47:57.022Z,67.25
2023-03-23T23:50:00.329Z,67.20
2023-03-23T23:52:03.357Z,67.42
2023-03-23T23:54:06.408Z,67.83
2023-03-23T23:56:10.478Z,68.09
2023-03-23T23:58:13.419Z,68.59
